Time;durP1;ratioP1;P1;durP2;ratioP2;P2;SDS_P1;SDS_P2;PMS_P1;PMS_P2;Temp;Humidity;BMP_temperature;BMP_pressure;BME280_temperature;BME280_humidity;BME280_pressure;Samples;Min_cycle;Max_cycle;Signal;HPM_P1;HPM_P2
2021/05/20 00:04:30;;;;;;;1.15;0.90;;;;;;;12.91;67.43;100446.75;10307417;28;20054;-68
2021/05/20 00:09:31;;;;;;;2.22;1.40;;;;;;;12.94;67.68;100452.78;10297293;28;20046;-68
2021/05/20 00:14:33;;;;;;;2.28;1.10;;;;;;;12.96;66.20;100456.19;10301953;28;20100;-68
2021/05/20 00:19:34;;;;;;;1.33;0.70;;;;;;;12.90;66.15;100460.25;10297468;28;20060;-69
2021/05/20 00:24:36;;;;;;;1.17;0.63;;;;;;;12.89;65.98;100461.22;10301047;28;20054;-69
2021/05/20 00:29:37;;;;;;;1.40;0.65;;;;;;;12.78;65.30;100458.63;10293820;28;20133;-69
2021/05/20 00:34:38;;;;;;;1.00;0.52;;;;;;;12.82;65.83;100454.69;10303338;28;20080;-69
2021/05/20 00:39:40;;;;;;;1.77;0.45;;;;;;;12.88;65.60;100473.72;10298258;28;20405;-69
2021/05/20 00:44:59;;;;;;;1.30;0.50;;;;;;;12.89;66.80;100463.88;10300475;28;20050;-70
2021/05/20 00:50:05;;;;;;;1.85;1.15;;;;;;;12.82;67.16;100473.41;10299608;28;20066;-70
2021/05/20 00:55:07;;;;;;;0.75;0.75;;;;;;;12.86;67.38;100469.50;10300503;28;20050;-70
2021/05/20 01:00:11;;;;;;;2.63;0.90;;;;;;;12.85;67.86;100467.78;10312473;28;20049;-70
2021/05/20 01:05:14;;;;;;;1.20;0.90;;;;;;;12.91;68.06;100473.47;10329162;28;20520;-70
2021/05/20 01:10:16;;;;;;;2.15;1.00;;;;;;;12.93;67.98;100470.66;10289558;28;20046;-71
2021/05/20 01:15:20;;;;;;;2.15;1.05;;;;;;;12.97;67.80;100480.09;10316268;28;20100;-70
2021/05/20 01:20:24;;;;;;;1.57;0.93;;;;;;;12.95;66.71;100476.69;10284210;28;20054;-69
2021/05/20 01:25:25;;;;;;;0.80;0.80;;;;;;;12.91;67.17;100478.81;10293758;28;20050;-70
2021/05/20 01:30:26;;;;;;;2.33;0.70;;;;;;;12.77;66.68;100478.31;10304165;28;20066;-69
2021/05/20 01:35:28;;;;;;;1.42;0.60;;;;;;;12.72;66.01;100471.53;10280335;28;20174;-70
2021/05/20 01:40:29;;;;;;;1.50;0.60;;;;;;;12.73;66.78;100475.06;10337807;28;20106;-70
2021/05/20 01:45:31;;;;;;;2.08;0.93;;;;;;;12.70;66.81;100478.84;10300024;28;20078;-68
2021/05/20 01:50:32;;;;;;;1.80;0.68;;;;;;;12.72;66.49;100478.72;10302397;28;20058;-70
2021/05/20 01:55:34;;;;;;;2.22;1.00;;;;;;;12.72;66.46;100486.72;10295246;28;20189;-70
2021/05/20 02:00:35;;;;;;;1.42;0.70;;;;;;;12.72;66.97;100495.56;10297698;28;20097;-70
2021/05/20 02:05:37;;;;;;;2.50;0.90;;;;;;;12.57;68.44;100486.19;10298639;28;20100;-69
2021/05/20 02:10:38;;;;;;;1.13;0.70;;;;;;;12.56;69.13;100484.50;10298918;28;20053;-70
2021/05/20 02:15:39;;;;;;;1.00;0.60;;;;;;;12.63;68.99;100484.84;10292710;28;20050;-70
2021/05/20 02:20:41;;;;;;;1.48;0.82;;;;;;;12.72;68.05;100495.56;10319254;28;20054;-70
2021/05/20 02:25:43;;;;;;;1.48;0.50;;;;;;;12.80;66.20;100497.56;10311012;28;20050;-70
2021/05/20 02:30:45;;;;;;;3.17;0.60;;;;;;;12.67;65.26;100503.13;10297711;28;20070;-70
2021/05/20 02:35:46;;;;;;;0.82;0.43;;;;;;;12.73;65.41;100509.78;10307263;28;20050;-69
2021/05/20 02:40:48;;;;;;;0.52;0.40;;;;;;;12.66;65.34;100516.63;10302573;28;20484;-71
2021/05/20 02:45:49;;;;;;;0.70;0.40;;;;;;;12.70;66.05;100507.34;10307389;28;25913;-70
2021/05/20 02:50:51;;;;;;;0.43;0.35;;;;;;;12.68;65.64;100510.16;10291429;28;20053;-70
2021/05/20 02:55:52;;;;;;;1.40;0.75;;;;;;;12.65;66.22;100515.75;10292162;28;20637;-70
2021/05/20 03:00:54;;;;;;;3.22;1.13;;;;;;;12.71;66.96;100525.06;10304497;28;20080;-70
2021/05/20 03:05:57;;;;;;;0.70;0.50;;;;;;;12.71;66.53;100525.91;10302662;28;21018;-71
2021/05/20 03:10:59;;;;;;;1.27;0.70;;;;;;;12.67;67.01;100524.50;10286813;28;20078;-70
2021/05/20 03:16:00;;;;;;;1.63;0.55;;;;;;;12.75;66.22;100523.00;10290237;28;20108;-70
2021/05/20 03:21:02;;;;;;;1.23;0.70;;;;;;;12.68;66.77;100530.69;10296971;28;20039;-69
2021/05/20 03:26:03;;;;;;;0.80;0.50;;;;;;;12.64;65.95;100532.78;10285794;28;20042;-70
2021/05/20 03:31:04;;;;;;;0.88;0.57;;;;;;;12.61;66.78;100525.03;10283725;28;20096;-69
2021/05/20 03:36:06;;;;;;;0.40;0.40;;;;;;;12.64;66.43;100530.09;10286430;28;20084;-70
2021/05/20 03:41:07;;;;;;;1.58;0.85;;;;;;;12.71;66.82;100533.09;10287308;28;20058;-70
2021/05/20 03:46:09;;;;;;;1.38;0.95;;;;;;;12.76;66.06;100532.69;10304818;28;20117;-70
2021/05/20 03:51:10;;;;;;;1.23;0.80;;;;;;;12.71;66.15;100536.59;10306501;28;20112;-70
2021/05/20 03:56:12;;;;;;;1.15;1.00;;;;;;;12.70;65.91;100545.59;10305129;28;20121;-70
2021/05/20 04:01:13;;;;;;;2.38;1.20;;;;;;;12.69;66.12;100551.91;10327687;28;20042;-70
2021/05/20 04:06:15;;;;;;;2.97;1.52;;;;;;;12.67;66.12;100548.53;10314765;28;20055;-71
2021/05/20 04:11:16;;;;;;;1.73;1.40;;;;;;;12.52;68.20;100557.81;10300050;28;20109;-70
2021/05/20 04:16:23;;;;;;;2.63;1.60;;;;;;;12.47;68.03;100555.53;10289867;28;20069;-70
2021/05/20 04:21:24;;;;;;;2.60;1.70;;;;;;;12.61;67.06;100570.44;10310630;28;20047;-71
2021/05/20 04:26:26;;;;;;;2.20;2.00;;;;;;;12.65;68.27;100569.16;10331886;28;20054;-70
2021/05/20 04:31:27;;;;;;;2.13;1.92;;;;;;;12.66;67.09;100562.03;10296062;28;20070;-70
2021/05/20 04:36:29;;;;;;;2.45;2.25;;;;;;;12.67;68.23;100577.91;10296962;28;20046;-69
2021/05/20 04:41:32;;;;;;;2.65;2.45;;;;;;;12.70;67.97;100582.13;10291737;28;20085;-70
2021/05/20 04:46:33;;;;;;;3.72;2.92;;;;;;;12.74;67.39;100583.56;10283491;28;20105;-70
2021/05/20 04:51:34;;;;;;;3.40;3.10;;;;;;;12.76;67.77;100588.78;10307977;28;20646;-69
2021/05/20 04:56:36;;;;;;;3.75;2.90;;;;;;;12.80;67.67;100593.75;10296226;28;20123;-69
2021/05/20 05:01:37;;;;;;;4.05;2.80;;;;;;;12.79;67.28;100609.91;10301479;28;20046;-70
2021/05/20 05:06:39;;;;;;;5.32;3.58;;;;;;;12.76;67.38;100610.16;10296452;28;20569;-69
2021/05/20 05:11:40;;;;;;;3.88;3.47;;;;;;;12.83;66.97;100614.84;10284596;28;20094;-70
2021/05/20 05:16:42;;;;;;;4.90;4.10;;;;;;;12.75;67.53;100619.16;10282998;28;20050;-69
2021/05/20 05:21:43;;;;;;;4.65;4.13;;;;;;;12.86;66.73;100630.63;10304749;28;20069;-69
2021/05/20 05:26:45;;;;;;;5.18;4.70;;;;;;;12.70;67.20;100636.41;10316517;28;20050;-70
2021/05/20 05:31:46;;;;;;;5.03;4.53;;;;;;;12.82;67.49;100639.03;10309700;28;20054;-69
2021/05/20 05:36:48;;;;;;;6.10;5.13;;;;;;;12.96;67.67;100641.41;10294554;28;20054;-70
2021/05/20 05:41:49;;;;;;;6.90;6.28;;;;;;;12.91;67.26;100651.63;10291885;28;20149;-69
2021/05/20 05:46:50;;;;;;;6.43;5.82;;;;;;;13.07;67.21;100664.53;10315095;28;20054;-69
2021/05/20 05:51:56;;;;;;;6.93;6.25;;;;;;;13.16;66.51;100665.59;10312406;28;20069;-70
2021/05/20 05:56:57;;;;;;;7.03;6.32;;;;;;;13.43;66.26;100665.06;10287218;28;20061;-69
2021/05/20 06:01:59;;;;;;;7.68;6.97;;;;;;;13.55;65.29;100663.16;10289409;28;20065;-69
2021/05/20 06:07:00;;;;;;;8.52;7.65;;;;;;;13.60;66.34;100677.84;10284559;28;20073;-70
2021/05/20 06:12:02;;;;;;;10.25;8.10;;;;;;;13.57;64.44;100671.91;10337057;28;20047;-71
2021/05/20 06:17:04;;;;;;;8.27;7.53;;;;;;;13.59;65.90;100665.44;10301508;28;20504;-71
2021/05/20 06:22:05;;;;;;;8.70;7.80;;;;;;;13.80;65.18;100669.91;10288303;28;20051;-70
2021/05/20 06:27:07;;;;;;;10.45;9.45;;;;;;;13.85;64.74;100667.66;10298042;28;20501;-70
2021/05/20 06:32:08;;;;;;;11.00;9.15;;;;;;;13.86;63.20;100672.06;10305264;28;20492;-69
2021/05/20 06:37:10;;;;;;;9.50;8.57;;;;;;;13.92;63.71;100666.16;10297792;28;20069;-69
2021/05/20 06:42:14;;;;;;;10.10;9.10;;;;;;;13.99;61.76;100668.28;10290241;28;20054;-71
2021/05/20 06:47:16;;;;;;;9.63;8.65;;;;;;;13.96;62.01;100672.06;10297620;28;20050;-72
2021/05/20 06:52:18;;;;;;;11.05;9.98;;;;;;;13.96;61.81;100666.72;10295764;28;20089;-70
2021/05/20 07:02:46;;;;;;;11.02;9.95;;;;;;;13.73;61.22;100682.97;10282638;28;20074;-71
2021/05/20 07:07:48;;;;;;;10.52;9.60;;;;;;;13.81;61.37;100678.78;10299109;28;20402;-70
2021/05/20 07:12:49;;;;;;;9.98;9.02;;;;;;;14.22;61.19;100680.47;10300789;28;20419;-69
2021/05/20 07:17:51;;;;;;;11.27;10.10;;;;;;;14.38;61.49;100674.63;10309310;28;22358;-70
2021/05/20 07:22:52;;;;;;;10.75;9.65;;;;;;;14.39;58.25;100678.13;10315702;28;20054;-70
2021/05/20 07:27:54;;;;;;;9.32;8.40;;;;;;;14.67;58.05;100665.78;10313012;28;20129;-70
2021/05/20 07:32:55;;;;;;;9.38;8.40;;;;;;;15.10;57.10;100671.69;10304553;28;20521;-70
2021/05/20 07:37:56;;;;;;;9.25;8.18;;;;;;;15.16;54.75;100658.59;10302236;28;20116;-72
2021/05/20 07:42:58;;;;;;;9.90;8.90;;;;;;;15.05;54.51;100673.97;10316610;28;20050;-69
2021/05/20 07:48:00;;;;;;;10.23;9.02;;;;;;;14.98;54.58;100677.22;10308512;28;20092;-69
2021/05/20 07:53:01;;;;;;;9.13;8.05;;;;;;;14.96;55.75;100676.50;10313883;28;20054;-69
2021/05/20 07:58:05;;;;;;;9.48;8.57;;;;;;;14.91;54.33;100673.41;10314129;28;20052;-69
2021/05/20 08:03:24;;;;;;;9.40;8.48;;;;;;;14.63;55.82;100670.56;10295276;28;20472;-69
2021/05/20 08:08:46;;;;;;;8.65;7.93;;;;;;;14.78;56.67;100688.91;10293401;28;20082;-70
2021/05/20 08:13:47;;;;;;;9.68;8.00;;;;;;;15.16;54.63;100690.75;10297398;28;20046;-69
2021/05/20 08:18:48;;;;;;;7.47;6.78;;;;;;;15.65;52.74;100687.13;10295237;28;20058;-71
2021/05/20 08:23:50;;;;;;;7.13;6.53;;;;;;;15.98;51.97;100684.91;10291712;28;20459;-71
2021/05/20 08:28:52;;;;;;;6.00;5.47;;;;;;;16.23;49.80;100668.09;10293100;28;20136;-71
2021/05/20 08:33:54;;;;;;;7.28;6.57;;;;;;;16.34;49.40;100672.41;10291518;28;20085;-71
2021/05/20 08:38:55;;;;;;;5.55;5.05;;;;;;;16.33;50.60;100667.19;10292673;28;20042;-72
2021/05/20 08:43:58;;;;;;;7.05;6.45;;;;;;;16.25;48.17;100679.53;10289795;28;20124;-70
2021/05/20 08:49:00;;;;;;;7.13;6.43;;;;;;;16.36;48.97;100675.81;10297532;28;20540;-70
2021/05/20 08:54:01;;;;;;;7.38;6.68;;;;;;;16.32;48.79;100676.22;10288830;28;20057;-70
2021/05/20 08:59:03;;;;;;;6.30;5.70;;;;;;;16.47;47.92;100672.06;10289169;28;20761;-72
2021/05/20 09:04:06;;;;;;;6.70;6.00;;;;;;;16.52;48.25;100680.50;10301826;28;20123;-70
2021/05/20 09:09:13;;;;;;;5.70;5.20;;;;;;;16.94;48.59;100679.91;10303892;28;20133;-71
2021/05/20 09:14:30;;;;;;;5.05;4.60;;;;;;;17.40;47.56;100668.16;10302330;28;20085;-70
2021/05/20 09:19:31;;;;;;;5.95;5.35;;;;;;;18.01;44.45;100686.06;10308197;28;20500;-72
2021/05/20 09:24:55;;;;;;;6.00;5.38;;;;;;;17.70;44.43;100690.22;10302825;28;20138;-70
2021/05/20 09:30:07;;;;;;;6.20;5.57;;;;;;;18.01;44.25;100694.13;10298774;28;20132;-70
2021/05/20 09:35:10;;;;;;;6.78;5.60;;;;;;;17.67;44.79;100691.41;10299763;28;20055;-70
2021/05/20 09:40:12;;;;;;;10.25;5.43;;;;;;;18.07;45.44;100689.09;10303140;28;20136;-71
2021/05/20 09:45:17;;;;;;;8.10;7.30;;;;;;;18.27;44.47;100692.34;10292792;28;20097;-69
2021/05/20 09:50:22;;;;;;;6.25;5.32;;;;;;;18.14;44.92;100677.50;10301538;28;20074;-74
2021/05/20 09:55:26;;;;;;;5.95;5.35;;;;;;;18.59;45.37;100693.47;10303698;28;20086;-71
2021/05/20 10:00:29;;;;;;;5.65;4.75;;;;;;;18.72;45.37;100680.38;10302615;28;20184;-69
2021/05/20 10:06:04;;;;;;;6.10;5.50;;;;;;;18.89;42.43;100675.84;10309360;28;20232;-69
2021/05/20 10:11:05;;;;;;;6.28;5.10;;;;;;;19.18;41.96;100678.03;10258499;28;20277;-69
2021/05/20 10:16:07;;;;;;;6.43;5.93;;;;;;;19.64;39.49;100668.53;10293874;28;20189;-69
2021/05/20 10:21:09;;;;;;;6.00;4.80;;;;;;;18.70;40.46;100660.78;10298012;28;20206;-70
2021/05/20 10:26:13;;;;;;;6.55;5.90;;;;;;;18.90;42.37;100661.38;10289797;28;20053;-69
2021/05/20 10:31:15;;;;;;;6.13;5.63;;;;;;;18.90;41.37;100655.97;10302773;28;20112;-70
2021/05/20 10:36:24;;;;;;;5.65;5.15;;;;;;;19.17;42.18;100657.47;10306372;28;20050;-69
2021/05/20 10:41:27;;;;;;;5.55;5.10;;;;;;;19.89;39.99;100645.84;10304368;28;20169;-69
2021/05/20 10:46:29;;;;;;;4.97;4.57;;;;;;;19.46;39.75;100618.28;10247077;23;20138;-73
2021/05/20 10:51:37;;;;;;;4.35;4.03;;;;;;;19.29;40.27;100644.47;10249511;28;20405;-71
2021/05/20 10:56:38;;;;;;;4.30;3.95;;;;;;;19.33;40.54;100634.16;10227348;28;20050;-72
2021/05/20 11:01:40;;;;;;;5.13;4.28;;;;;;;19.81;39.05;100615.31;10218824;28;20102;-72
2021/05/20 11:06:42;;;;;;;4.38;3.97;;;;;;;20.17;36.87;100620.22;10217663;28;20059;-71
2021/05/20 11:11:44;;;;;;;4.63;4.03;;;;;;;20.49;38.08;100603.78;10217214;28;20048;-71
2021/05/20 11:16:45;;;;;;;2.88;2.63;;;;;;;21.12;36.46;100609.06;10225085;28;20138;-73
2021/05/20 11:21:59;;;;;;;4.47;3.50;;;;;;;21.64;36.01;100601.06;10224217;28;20238;-71
2021/05/20 11:27:05;;;;;;;3.80;3.50;;;;;;;21.79;35.54;100588.34;10214565;28;20138;-71
2021/05/20 11:37:31;;;;;;;3.63;3.33;;;;;;;22.10;34.49;100580.97;10233610;28;20321;-71
2021/05/20 11:42:33;;;;;;;3.72;3.00;;;;;;;21.50;35.10;100573.81;10228612;28;20469;-71
2021/05/20 11:47:34;;;;;;;3.25;2.95;;;;;;;21.16;34.40;100583.28;10237194;28;20142;-72
2021/05/20 11:52:36;;;;;;;1.90;1.75;;;;;;;20.89;35.15;100570.38;10224331;28;20149;-71
2021/05/20 11:57:37;;;;;;;2.35;2.15;;;;;;;21.11;34.46;100555.94;10222565;28;20079;-71
2021/05/20 12:02:39;;;;;;;2.38;2.17;;;;;;;21.39;34.47;100566.09;10205282;28;20055;-71
2021/05/20 12:07:41;;;;;;;3.65;2.25;;;;;;;20.97;34.97;100564.88;10212668;28;20134;-71
2021/05/20 12:12:53;;;;;;;2.70;2.30;;;;;;;21.11;34.13;100545.13;10210773;28;20536;-71
2021/05/20 12:18:02;;;;;;;2.72;2.30;;;;;;;21.26;34.07;100539.72;10211849;28;20137;-71
2021/05/20 12:23:03;;;;;;;2.50;2.05;;;;;;;21.75;35.14;100524.72;10223431;28;20043;-72
2021/05/20 12:28:09;;;;;;;1.77;1.65;;;;;;;21.41;34.57;100537.00;10227919;28;20087;-72
2021/05/20 12:33:14;;;;;;;2.67;1.70;;;;;;;20.73;36.01;100525.38;10222340;28;20587;-72
2021/05/20 12:38:20;;;;;;;2.17;1.67;;;;;;;21.09;35.07;100522.81;10214948;28;20055;-71
2021/05/20 12:43:38;;;;;;;3.80;2.15;;;;;;;21.05;34.15;100532.31;10223772;28;20126;-72
2021/05/20 12:48:40;;;;;;;1.88;1.65;;;;;;;20.60;35.27;100524.09;10206869;28;20462;-72
2021/05/20 12:54:12;;;;;;;2.05;1.58;;;;;;;20.13;35.94;100520.59;10208708;28;20445;-72
2021/05/20 12:59:15;;;;;;;2.15;1.88;;;;;;;19.73;38.64;100517.09;10203429;28;20051;-71
2021/05/20 13:04:24;;;;;;;1.75;1.58;;;;;;;19.49;39.54;100518.06;10220613;28;20057;-71
2021/05/20 13:09:33;;;;;;;2.85;1.40;;;;;;;19.87;38.86;100507.41;10223341;28;20637;-72
2021/05/20 13:20:12;;;;;;;1.50;0.98;;;;;;;20.37;37.52;100497.09;10222872;28;20110;-70
2021/05/20 13:25:17;;;;;;;0.65;0.60;;;;;;;20.42;36.82;100505.50;10225857;28;20189;-71
2021/05/20 13:35:33;;;;;;;1.75;0.80;;;;;;;19.98;36.94;100489.09;10219018;28;20047;-71
2021/05/20 13:40:35;;;;;;;0.55;0.40;;;;;;;20.12;36.44;100478.38;10205502;28;20550;-71
2021/05/20 13:45:37;;;;;;;1.25;0.80;;;;;;;20.30;35.44;100486.16;10208245;28;20494;-71
2021/05/20 13:50:40;;;;;;;0.75;0.70;;;;;;;20.45;34.94;100445.66;10220803;28;20106;-70
2021/05/20 13:55:42;;;;;;;0.83;0.40;;;;;;;20.58;35.91;100465.81;10222793;28;20513;-72
2021/05/20 14:00:45;;;;;;;1.80;0.55;;;;;;;20.49;36.30;100459.63;10218198;28;20130;-73
2021/05/20 14:05:46;;;;;;;1.73;0.55;;;;;;;20.10;35.51;100464.22;10220151;28;20062;-71
2021/05/20 14:10:47;;;;;;;1.52;0.40;;;;;;;20.42;35.87;100451.44;10221378;28;20165;-72
2021/05/20 14:15:49;;;;;;;1.63;0.85;;;;;;;20.27;35.68;100432.47;10221884;28;20051;-71
2021/05/20 14:20:51;;;;;;;0.43;0.40;;;;;;;20.27;36.25;100427.06;10237244;28;20049;-72
2021/05/20 14:25:53;;;;;;;1.48;0.30;;;;;;;19.97;34.96;100409.94;10244163;28;20059;-72
2021/05/20 14:30:54;;;;;;;1.23;0.40;;;;;;;19.72;35.39;100407.38;10223283;28;20047;-71
2021/05/20 14:35:55;;;;;;;0.63;0.40;;;;;;;19.85;34.43;100390.59;10223170;28;20462;-71
2021/05/20 14:40:57;;;;;;;0.77;0.40;;;;;;;19.88;33.70;100406.44;10219655;28;20486;-71
2021/05/20 14:45:58;;;;;;;1.50;0.55;;;;;;;19.55;34.71;100395.03;10216189;28;20191;-71
2021/05/20 14:56:14;;;;;;;2.25;0.73;;;;;;;19.59;35.55;100388.22;10219577;28;20110;-71
2021/05/20 15:06:35;;;;;;;2.88;1.35;;;;;;;19.23;37.21;100365.34;10218618;28;20133;-71
2021/05/20 15:11:48;;;;;;;0.70;0.60;;;;;;;19.38;36.05;100365.44;10217354;28;20051;-71
2021/05/20 15:17:01;;;;;;;1.23;0.60;;;;;;;19.15;37.48;100376.19;10216104;28;20075;-71
2021/05/20 15:22:02;;;;;;;1.00;0.80;;;;;;;18.92;36.88;100356.41;10217959;28;20113;-70
2021/05/20 15:27:04;;;;;;;1.15;0.80;;;;;;;18.77;37.48;100372.47;10218582;28;20089;-72
2021/05/20 15:32:06;;;;;;;1.20;1.10;;;;;;;18.62;37.75;100365.09;10218332;28;20118;-72
2021/05/20 15:37:09;;;;;;;1.67;1.00;;;;;;;18.70;38.17;100348.03;10228454;28;20133;-72
2021/05/20 15:42:10;;;;;;;1.03;0.67;;;;;;;18.64;38.76;100332.56;10240093;28;20047;-72
2021/05/20 15:47:24;;;;;;;1.05;0.95;;;;;;;18.51;39.87;100335.78;10240939;28;20044;-72
2021/05/20 15:52:25;;;;;;;1.00;0.80;;;;;;;18.49;39.89;100329.75;10235410;28;20055;-71
2021/05/20 15:57:27;;;;;;;1.65;1.42;;;;;;;18.48;40.55;100339.69;10237215;28;20075;-71
2021/05/20 16:02:29;;;;;;;1.15;1.05;;;;;;;18.23;41.29;100317.34;10212123;28;20680;-71
2021/05/20 16:07:39;;;;;;;1.90;1.65;;;;;;;18.38;41.36;100322.88;10208066;28;20500;-70
2021/05/20 16:18:18;;;;;;;2.15;1.48;;;;;;;18.01;41.67;100322.44;10103215;28;20571;-72
2021/05/20 16:23:32;;;;;;;2.95;1.50;;;;;;;18.18;41.88;100325.94;10218866;28;20055;-71
2021/05/20 16:33:47;;;;;;;2.28;2.08;;;;;;;18.15;41.46;100315.53;10219528;28;20051;-73
2021/05/20 16:39:18;;;;;;;1.70;1.58;;;;;;;18.07;42.16;100325.47;10220531;28;20350;-72
2021/05/20 16:44:19;;;;;;;2.88;2.40;;;;;;;17.99;42.94;100323.63;10220539;28;20137;-72
2021/05/20 16:49:21;;;;;;;3.22;2.92;;;;;;;17.99;42.75;100320.94;10218158;28;20059;-71
2021/05/20 16:54:25;;;;;;;2.95;1.42;;;;;;;17.88;42.78;100322.09;10220809;28;20522;-70
2021/05/20 16:59:26;;;;;;;;;;;;;;;17.79;42.52;100323.09;10210019;28;20039;-71
2021/05/20 17:04:27;;;;;;;1.25;1.10;;;;;;;17.67;43.08;100328.81;10224181;28;19923;-72
2021/05/20 17:09:29;;;;;;;1.58;1.48;;;;;;;17.47;43.11;100301.41;10221394;28;20577;-73
2021/05/20 17:14:30;;;;;;;1.42;1.05;;;;;;;17.35;43.47;100283.06;10221385;28;20139;-73
2021/05/20 17:19:32;;;;;;;3.17;1.35;;;;;;;17.44;43.35;100290.13;10205371;28;20051;-72
2021/05/20 17:24:35;;;;;;;2.08;1.60;;;;;;;17.36;43.07;100303.59;10219365;28;20047;-71
2021/05/20 17:29:37;;;;;;;3.30;3.00;;;;;;;17.36;42.91;100304.41;10208381;28;20059;-72
2021/05/20 17:34:38;;;;;;;1.33;1.23;;;;;;;17.31;42.81;100299.53;10208280;28;20111;-73
2021/05/20 17:39:40;;;;;;;2.45;1.30;;;;;;;17.19;42.19;100279.34;10220776;28;20613;-73
2021/05/20 17:44:42;;;;;;;1.67;1.00;;;;;;;17.19;42.63;100276.66;10205382;28;20129;-72
2021/05/20 17:49:43;;;;;;;2.90;1.27;;;;;;;17.14;42.21;100281.69;10219201;28;20051;-72
2021/05/20 17:54:45;;;;;;;1.90;1.20;;;;;;;17.01;42.59;100278.63;10204441;28;20051;-72
2021/05/20 17:59:47;;;;;;;1.60;1.17;;;;;;;17.06;43.00;100276.31;10220994;28;20554;-71
2021/05/20 18:04:49;;;;;;;1.98;1.20;;;;;;;17.02;42.57;100253.44;10206750;28;20533;-71
2021/05/20 18:09:53;;;;;;;2.67;1.33;;;;;;;17.08;42.25;100260.84;10216659;28;20066;-71
2021/05/20 18:15:03;;;;;;;4.30;1.10;;;;;;;16.88;42.20;100236.94;10203743;28;20847;-71
2021/05/20 18:25:25;;;;;;;1.60;1.17;;;;;;;16.71;42.43;100235.19;10212159;28;20043;-71
2021/05/20 18:30:28;;;;;;;1.52;1.17;;;;;;;16.66;42.97;100232.16;10215152;28;21620;-71
2021/05/20 18:35:29;;;;;;;3.20;2.88;;;;;;;16.69;42.98;100239.88;10198182;28;20098;-71
2021/05/20 18:40:31;;;;;;;1.83;1.55;;;;;;;16.56;43.11;100219.69;10202301;28;20071;-71
2021/05/20 18:45:32;;;;;;;1.77;1.48;;;;;;;16.65;43.18;100234.00;10202854;28;20055;-72
2021/05/20 18:50:35;;;;;;;1.77;1.05;;;;;;;16.49;43.07;100239.31;10214229;28;20592;-71
2021/05/20 18:55:36;;;;;;;3.53;1.67;;;;;;;16.36;42.71;100219.13;10213793;28;20059;-72
2021/05/20 19:00:37;;;;;;;1.55;1.00;;;;;;;16.28;42.91;100211.03;10213696;28;22586;-70
2021/05/20 19:05:41;;;;;;;1.05;0.98;;;;;;;16.30;43.09;100216.25;10212615;28;20059;-70
2021/05/20 19:10:48;;;;;;;1.48;1.02;;;;;;;16.25;43.31;100198.75;10218301;28;20062;-70
2021/05/20 19:15:51;;;;;;;1.88;1.00;;;;;;;16.14;43.99;100177.59;10219555;28;20051;-70
2021/05/20 19:20:54;;;;;;;1.73;1.10;;;;;;;16.13;44.51;100170.53;10210911;28;20203;-70
2021/05/20 19:25:56;;;;;;;1.98;1.00;;;;;;;16.22;44.68;100174.91;10221554;28;20055;-70
2021/05/20 19:30:57;;;;;;;1.42;1.27;;;;;;;16.21;45.05;100165.19;10218494;28;20454;-69
2021/05/20 19:35:59;;;;;;;4.40;1.35;;;;;;;16.07;45.96;100174.69;10221105;28;20565;-70
2021/05/20 19:41:00;;;;;;;3.65;1.30;;;;;;;16.02;46.50;100173.50;10217746;28;20055;-70
2021/05/20 19:46:02;;;;;;;1.67;1.15;;;;;;;15.87;46.66;100155.31;10220505;28;20055;-71
2021/05/20 19:51:06;;;;;;;2.78;2.20;;;;;;;15.84;47.04;100144.91;10221655;28;20506;-73
2021/05/20 20:01:12;;;;;;;2.35;1.20;;;;;;;15.91;47.57;100155.81;10215718;28;20314;-69
2021/05/20 20:11:22;;;;;;;2.10;1.45;;;;;;;15.76;47.10;100146.66;10230168;28;20047;-70
2021/05/20 20:16:25;;;;;;;2.45;1.25;;;;;;;15.82;47.48;100152.28;10227347;28;20051;-70
2021/05/20 20:21:28;;;;;;;2.65;1.30;;;;;;;15.76;46.87;100152.88;10234738;28;20063;-70
2021/05/20 20:31:50;;;;;;;1.58;1.30;;;;;;;15.51;47.23;100133.97;10209875;28;20039;-70
2021/05/20 20:37:22;;;;;;;1.77;1.10;;;;;;;15.64;46.93;100140.72;10219628;28;20074;-70
2021/05/20 20:42:14;;;;;;;1.50;1.30;;;;;;;15.55;47.35;100126.41;10206725;28;20697;-70
2021/05/20 20:47:18;;;;;;;1.30;1.20;;;;;;;15.51;46.95;100117.88;10233682;23;20058;-71
2021/05/20 20:52:21;;;;;;;1.50;1.23;;;;;;;15.51;47.02;100101.78;10324839;28;20591;-72
2021/05/20 20:57:23;;;;;;;1.20;0.93;;;;;;;15.55;46.91;100096.91;10345771;28;20068;-71
2021/05/20 21:02:26;;;;;;;1.33;1.13;;;;;;;15.43;47.39;100092.81;10321047;28;20049;-71
2021/05/20 21:07:28;;;;;;;4.13;1.63;;;;;;;15.40;48.01;100093.97;10313428;28;20049;-70
2021/05/20 21:12:30;;;;;;;1.98;1.05;;;;;;;15.30;48.29;100077.19;10330256;28;20061;-71
2021/05/20 21:17:31;;;;;;;1.92;1.20;;;;;;;15.20;48.97;100070.06;10316018;28;20045;-71
2021/05/20 21:22:32;;;;;;;2.13;1.33;;;;;;;15.19;49.52;100073.75;10309218;28;20077;-72
2021/05/20 21:27:34;;;;;;;1.65;1.30;;;;;;;15.16;49.76;100076.75;10335977;28;20078;-70
2021/05/20 21:32:35;;;;;;;2.13;1.50;;;;;;;15.15;50.01;100083.13;10326984;28;20630;-72
2021/05/20 21:37:37;;;;;;;2.55;1.50;;;;;;;15.18;50.24;100072.06;10310344;28;20185;-70
2021/05/20 21:42:39;;;;;;;1.85;1.27;;;;;;;15.21;50.66;100049.47;10321627;28;20042;-70
2021/05/20 21:47:40;;;;;;;1.83;1.52;;;;;;;15.13;50.90;100047.59;10324237;28;20066;-72
2021/05/20 21:52:42;;;;;;;1.77;1.35;;;;;;;15.07;51.26;100045.50;10309336;28;20050;-71
2021/05/20 21:57:44;;;;;;;1.17;1.08;;;;;;;15.12;51.07;100042.38;10330812;28;20042;-71
2021/05/20 22:02:45;;;;;;;1.95;1.40;;;;;;;15.07;51.43;100031.28;10332767;28;20061;-71
2021/05/20 22:07:47;;;;;;;2.55;1.45;;;;;;;15.05;51.70;100028.75;10330873;28;20046;-73
2021/05/20 22:13:02;;;;;;;1.60;1.40;;;;;;;15.13;51.26;100015.41;10317576;28;20130;-72
2021/05/20 22:18:04;;;;;;;;;;;;;;;15.10;51.61;100022.91;10333088;28;20112;-72
2021/05/20 22:23:08;;;;;;;0.97;0.90;;;;;;;15.03;51.66;100014.69;10308764;28;19929;-72
2021/05/20 22:28:20;;;;;;;2.83;1.58;;;;;;;14.96;51.90;100002.91;10339962;28;20293;-70
2021/05/20 22:33:22;;;;;;;1.88;1.65;;;;;;;14.89;51.96;99988.47;10332957;28;20045;-71
2021/05/20 22:38:23;;;;;;;1.63;1.10;;;;;;;14.91;52.28;99986.47;10315067;28;20054;-72
2021/05/20 22:43:26;;;;;;;1.48;1.27;;;;;;;14.91;52.23;99984.63;10327772;28;20505;-71
2021/05/20 22:48:28;;;;;;;1.65;1.38;;;;;;;14.83;52.52;99973.84;10340640;28;20145;-71
2021/05/20 22:53:29;;;;;;;2.47;1.27;;;;;;;14.91;52.44;99973.09;10335315;28;20046;-71
2021/05/20 22:58:31;;;;;;;2.60;1.30;;;;;;;14.77;52.66;99958.41;10318786;28;20104;-72
2021/05/20 23:03:32;;;;;;;1.30;1.20;;;;;;;14.70;53.10;99962.69;10328880;28;20065;-71
2021/05/20 23:08:34;;;;;;;1.70;1.20;;;;;;;14.65;53.00;99968.53;10339280;28;22249;-72
2021/05/20 23:13:35;;;;;;;2.70;1.10;;;;;;;14.62;53.38;99950.97;10342445;28;20049;-72
2021/05/20 23:18:38;;;;;;;1.80;1.30;;;;;;;14.56;53.47;99948.03;10327664;28;20070;-71
2021/05/20 23:23:40;;;;;;;1.30;1.20;;;;;;;14.48;53.55;99930.88;10330715;28;20066;-72
2021/05/20 23:28:41;;;;;;;1.40;1.30;;;;;;;14.53;53.55;99908.16;10342545;28;20141;-72
2021/05/20 23:33:43;;;;;;;1.48;1.00;;;;;;;14.55;53.47;99911.53;10351986;28;20057;-71
2021/05/20 23:38:46;;;;;;;1.42;1.00;;;;;;;14.57;53.82;99912.22;10323624;28;20571;-72
2021/05/20 23:43:47;;;;;;;1.35;1.05;;;;;;;14.47;54.13;99899.78;10316336;28;20508;-72
2021/05/20 23:48:49;;;;;;;1.35;1.10;;;;;;;14.44;53.99;99889.38;10321977;28;20113;-72
2021/05/20 23:53:51;;;;;;;3.58;1.13;;;;;;;14.42;54.31;99869.94;10326816;28;20184;-71
2021/05/20 23:58:55;;;;;;;1.67;1.10;;;;;;;14.43;54.52;99871.63;10339684;28;20046;-71
